Time;durP1;ratioP1;P1;durP2;ratioP2;P2;SDS_P1;SDS_P2;PMS_P1;PMS_P2;Temp;Humidity;BMP_temperature;BMP_pressure;BME280_temperature;BME280_humidity;BME280_pressure;Samples;Min_cycle;Max_cycle;Signal;HPM_P1;HPM_P2
2022/09/12 00:00:49;;;;;;;9.65;8.63;;;12.80;99.90;;;;;;5070216;28;20039;-71
2022/09/12 00:03:15;;;;;;;9.32;8.40;;;12.80;99.90;;;;;;5072598;28;20127;-71
2022/09/12 00:05:46;;;;;;;10.63;9.52;;;12.80;99.90;;;;;;5069445;28;20052;-71
2022/09/12 00:08:12;;;;;;;11.05;9.20;;;12.70;99.90;;;;;;5072711;28;20028;-71
2022/09/12 00:10:39;;;;;;;10.32;9.15;;;12.70;99.90;;;;;;5069840;28;20024;-71
2022/09/12 00:13:06;;;;;;;10.57;9.45;;;12.70;99.90;;;;;;5072940;28;20145;-71
2022/09/12 00:15:36;;;;;;;10.18;9.18;;;12.70;99.90;;;;;;5071143;28;20107;-70
2022/09/12 00:18:01;;;;;;;9.70;8.80;;;12.70;99.90;;;;;;5070551;28;20031;-71
2022/09/12 00:20:27;;;;;;;9.20;8.30;;;12.70;99.90;;;;;;5072468;28;20032;-72
2022/09/12 00:22:53;;;;;;;11.88;10.05;;;12.60;99.90;;;;;;5068745;28;20108;-71
2022/09/12 00:25:18;;;;;;;10.85;9.73;;;12.60;99.90;;;;;;5068004;28;20029;-72
2022/09/12 00:27:44;;;;;;;10.13;9.10;;;12.60;99.90;;;;;;5073214;28;20410;-71
2022/09/12 00:30:10;;;;;;;10.10;9.00;;;12.60;99.90;;;;;;5072618;28;20146;-71
2022/09/12 00:32:36;;;;;;;11.70;9.45;;;12.60;99.90;;;;;;5074360;28;20411;-70
2022/09/12 00:35:02;;;;;;;11.43;9.95;;;12.60;99.90;;;;;;5066360;28;20143;-71
2022/09/12 00:37:27;;;;;;;11.85;9.75;;;12.50;99.90;;;;;;5070704;28;20043;-72
2022/09/12 00:39:53;;;;;;;11.77;10.48;;;12.50;99.90;;;;;;5068106;28;20025;-71
2022/09/12 00:42:18;;;;;;;13.93;11.30;;;12.60;99.90;;;;;;5069958;28;20044;-71
2022/09/12 00:44:48;;;;;;;10.73;9.65;;;12.50;99.90;;;;;;5069537;28;20044;-71
2022/09/12 00:47:22;;;;;;;11.80;10.30;;;12.50;99.90;;;;;;5070467;28;20086;-71
2022/09/12 00:50:03;;;;;;;12.07;9.70;;;12.60;99.90;;;;;;5069807;28;20044;-72
2022/09/12 00:52:41;;;;;;;11.43;10.20;;;12.50;99.90;;;;;;5071068;28;20033;-71
2022/09/12 00:55:13;;;;;;;10.98;9.63;;;12.50;99.90;;;;;;5066859;28;20039;-71
2022/09/12 00:57:48;;;;;;;11.27;10.00;;;12.50;99.90;;;;;;5067285;28;20516;-71
2022/09/12 01:00:17;;;;;;;14.30;10.82;;;12.50;99.90;;;;;;5073771;28;20164;-71
2022/09/12 01:02:47;;;;;;;12.57;10.32;;;12.50;99.90;;;;;;5069657;28;20107;-71
2022/09/12 01:05:14;;;;;;;11.98;10.20;;;12.50;99.90;;;;;;5066198;28;20027;-71
2022/09/12 01:07:40;;;;;;;14.23;10.52;;;12.40;99.90;;;;;;5068708;28;20033;-71
2022/09/12 01:10:08;;;;;;;11.30;10.10;;;12.40;99.90;;;;;;5067218;28;20115;-71
2022/09/12 01:12:36;;;;;;;12.48;10.98;;;12.40;99.90;;;;;;5069666;28;20405;-70
2022/09/12 01:15:02;;;;;;;15.27;11.73;;;12.30;99.90;;;;;;5071575;28;20032;-71
2022/09/12 01:17:42;;;;;;;15.50;11.38;;;12.40;99.90;;;;;;5070179;28;20086;-71
2022/09/12 01:20:28;;;;;;;12.70;10.88;;;12.30;99.90;;;;;;5069381;28;20448;-71
2022/09/12 01:23:09;;;;;;;14.45;11.52;;;12.40;99.90;;;;;;5069737;28;20036;-71
2022/09/12 01:25:53;;;;;;;13.95;10.95;;;12.30;99.90;;;;;;5069864;28;20036;-70
2022/09/12 01:28:48;;;;;;;12.77;11.48;;;12.30;99.90;;;;;;5073930;28;20418;-72
2022/09/12 01:31:29;;;;;;;12.82;11.10;;;12.30;99.90;;;;;;5078675;28;20060;-71
2022/09/12 01:34:27;;;;;;;12.52;10.60;;;12.20;99.90;;;;;;5068602;28;20131;-72
2022/09/12 01:37:15;;;;;;;11.18;9.93;;;12.20;99.90;;;;;;5057907;28;20036;-71
2022/09/12 01:39:47;;;;;;;12.90;10.27;;;12.10;99.90;;;;;;5075313;28;20029;-71
2022/09/12 01:42:30;;;;;;;13.50;10.63;;;12.10;99.90;;;;;;5084841;28;20134;-71
2022/09/12 01:45:09;;;;;;;12.52;10.32;;;12.10;99.90;;;;;;5080434;28;20051;-71
2022/09/12 01:47:43;;;;;;;12.73;11.35;;;12.00;99.90;;;;;;5093425;28;20066;-70
2022/09/12 01:50:43;;;;;;;13.70;10.57;;;12.00;99.90;;;;;;5071710;28;20042;-71
2022/09/12 01:53:47;;;;;;;17.33;12.40;;;12.00;99.90;;;;;;5048639;28;20132;-71
2022/09/12 01:56:21;;;;;;;16.50;12.38;;;12.00;99.90;;;;;;4994450;28;20064;-71
2022/09/12 01:59:14;;;;;;;13.85;11.40;;;12.00;99.90;;;;;;5072365;28;20108;-71
2022/09/12 02:01:46;;;;;;;19.95;12.45;;;11.90;99.90;;;;;;5063403;28;20051;-70
2022/09/12 02:04:27;;;;;;;13.60;12.20;;;11.90;99.90;;;;;;5074271;28;20028;-71
2022/09/12 02:07:17;;;;;;;15.95;12.55;;;11.90;99.90;;;;;;5088322;28;20091;-71
2022/09/12 02:09:59;;;;;;;13.98;11.85;;;11.90;99.90;;;;;;5065727;28;20021;-70
2022/09/12 02:12:35;;;;;;;14.25;11.20;;;11.90;99.90;;;;;;5074598;28;20509;-71
2022/09/12 02:15:06;;;;;;;13.02;11.30;;;11.90;99.90;;;;;;5093259;28;20487;-71
2022/09/12 02:17:37;;;;;;;16.67;13.35;;;11.80;99.90;;;;;;5075609;28;20040;-71
2022/09/12 02:20:15;;;;;;;14.77;13.02;;;11.80;99.90;;;;;;5074141;28;20021;-71
2022/09/12 02:22:43;;;;;;;14.13;12.38;;;11.80;99.90;;;;;;5073869;28;20111;-72
2022/09/12 02:25:13;;;;;;;14.65;12.57;;;11.70;99.90;;;;;;5069189;28;20032;-72
2022/09/12 02:27:50;;;;;;;17.53;14.17;;;11.70;99.90;;;;;;5086349;28;20107;-70
2022/09/12 02:30:18;;;;;;;16.98;14.02;;;11.70;99.90;;;;;;5072985;28;20624;-71
2022/09/12 02:33:12;;;;;;;17.48;14.02;;;11.70;99.90;;;;;;5073226;28;20111;-71
2022/09/12 02:35:52;;;;;;;17.35;13.90;;;11.70;99.90;;;;;;5067777;28;20083;-70
2022/09/12 02:38:31;;;;;;;15.85;14.15;;;11.70;99.90;;;;;;5072922;28;20032;-71
2022/09/12 02:40:57;;;;;;;16.17;13.68;;;11.70;99.90;;;;;;5074308;28;20675;-71
2022/09/12 02:43:23;;;;;;;16.27;13.38;;;11.70;99.90;;;;;;5083677;28;20044;-72
2022/09/12 02:45:48;;;;;;;15.07;12.75;;;11.70;99.90;;;;;;5092586;28;20035;-72
2022/09/12 02:48:20;;;;;;;15.40;12.93;;;11.70;99.90;;;;;;5093463;28;20028;-72
2022/09/12 02:50:46;;;;;;;15.27;11.93;;;11.60;99.90;;;;;;5092960;28;20025;-71
2022/09/12 02:53:12;;;;;;;18.08;13.75;;;11.60;99.90;;;;;;5082973;28;20043;-71
2022/09/12 02:55:39;;;;;;;18.13;14.18;;;11.60;99.90;;;;;;5093345;28;20031;-71
2022/09/12 02:58:09;;;;;;;15.48;12.30;;;11.70;99.90;;;;;;5092914;28;20441;-71
2022/09/12 03:00:46;;;;;;;16.85;14.70;;;11.70;99.90;;;;;;5093722;28;20482;-71
2022/09/12 03:03:43;;;;;;;16.58;13.48;;;11.50;99.90;;;;;;5092889;28;20040;-71
2022/09/12 03:06:32;;;;;;;15.48;12.48;;;11.50;99.90;;;;;;5072642;28;20099;-71
2022/09/12 03:09:25;;;;;;;17.02;14.23;;;11.50;99.90;;;;;;5084559;28;20039;-72
2022/09/12 03:12:29;;;;;;;14.98;12.73;;;11.40;99.90;;;;;;5087506;28;20398;-71
2022/09/12 03:15:07;;;;;;;20.40;14.43;;;11.40;99.90;;;;;;5084705;28;20097;-70
2022/09/12 03:18:00;;;;;;;17.88;14.25;;;11.30;99.90;;;;;;5079817;28;20028;-71
2022/09/12 03:20:49;;;;;;;19.02;14.98;;;11.30;99.90;;;;;;5093029;28;20032;-71
2022/09/12 03:23:28;;;;;;;20.25;14.15;;;11.30;99.90;;;;;;5067372;28;20068;-72
2022/09/12 03:26:00;;;;;;;16.30;13.05;;;11.40;99.90;;;;;;5090529;28;20461;-72
2022/09/12 03:28:26;;;;;;;19.73;13.93;;;11.30;99.90;;;;;;5092687;28;20036;-72
2022/09/12 03:30:53;;;;;;;17.13;14.18;;;11.30;99.90;;;;;;5091758;28;20140;-71
2022/09/12 03:33:24;;;;;;;18.98;14.40;;;11.30;99.90;;;;;;5089616;28;20080;-72
2022/09/12 03:35:50;;;;;;;16.13;12.88;;;11.30;99.90;;;;;;5092007;28;20035;-73
2022/09/12 03:38:17;;;;;;;17.83;13.70;;;11.30;99.90;;;;;;5092843;28;20024;-72
2022/09/12 03:40:43;;;;;;;15.63;12.88;;;11.30;99.90;;;;;;5091956;28;20055;-69
2022/09/12 03:43:09;;;;;;;15.80;12.95;;;11.30;99.90;;;;;;5082419;28;20093;-72
2022/09/12 03:45:35;;;;;;;14.23;11.68;;;11.30;99.90;;;;;;5092235;28;20035;-71
2022/09/12 03:48:01;;;;;;;15.52;13.02;;;11.20;99.90;;;;;;5091122;28;20028;-71
2022/09/12 03:50:27;;;;;;;17.08;12.90;;;11.20;99.90;;;;;;5078420;28;20107;-72
2022/09/12 03:52:52;;;;;;;15.38;13.23;;;11.20;99.90;;;;;;5091571;28;20028;-71
2022/09/12 03:55:18;;;;;;;15.88;12.98;;;11.20;99.90;;;;;;5092232;28;20057;-71
2022/09/12 03:57:44;;;;;;;15.50;12.43;;;11.10;99.90;;;;;;5086090;28;20423;-70
2022/09/12 04:00:10;;;;;;;16.45;12.68;;;11.10;99.90;;;;;;5080704;28;20028;-71
2022/09/12 04:02:36;;;;;;;14.70;12.38;;;11.10;99.90;;;;;;5089083;28;20372;-71
2022/09/12 04:05:02;;;;;;;18.08;14.65;;;11.10;99.90;;;;;;5086989;28;20033;-70
2022/09/12 04:07:28;;;;;;;16.05;13.98;;;11.10;99.90;;;;;;5088025;28;20043;-71
2022/09/12 04:09:53;;;;;;;20.52;15.98;;;11.10;99.90;;;;;;5090920;28;20032;-70
2022/09/12 04:12:19;;;;;;;18.67;15.75;;;11.10;99.90;;;;;;5086377;28;20024;-71
2022/09/12 04:14:45;;;;;;;20.63;15.25;;;11.10;99.90;;;;;;5075194;28;20456;-70
2022/09/12 04:17:10;;;;;;;18.55;15.27;;;11.10;99.90;;;;;;5091495;28;20469;-72
2022/09/12 04:19:36;;;;;;;18.63;13.73;;;11.10;99.90;;;;;;5091857;28;20032;-72
2022/09/12 04:22:02;;;;;;;15.77;13.70;;;11.10;99.90;;;;;;5090817;28;20914;-70
2022/09/12 04:24:28;;;;;;;17.35;14.57;;;11.10;99.90;;;;;;5091790;28;20043;-71
2022/09/12 04:26:53;;;;;;;23.20;15.88;;;11.10;99.90;;;;;;5083544;28;20385;-71
2022/09/12 04:29:19;;;;;;;20.70;15.40;;;11.10;99.90;;;;;;5086297;28;20028;-72
2022/09/12 04:31:45;;;;;;;18.70;14.52;;;11.10;99.90;;;;;;5085177;28;20089;-70
2022/09/12 04:34:10;;;;;;;16.70;14.32;;;11.10;99.90;;;;;;5059199;28;20047;-73
2022/09/12 04:36:36;;;;;;;18.23;13.93;;;11.10;99.90;;;;;;5060183;28;20029;-70
2022/09/12 04:39:03;;;;;;;19.67;15.02;;;11.10;99.90;;;;;;5065592;28;20436;-71
2022/09/12 04:41:32;;;;;;;17.73;14.68;;;11.00;99.90;;;;;;5085977;28;20020;-72
2022/09/12 04:44:06;;;;;;;21.45;15.27;;;11.00;99.90;;;;;;5069560;28;20044;-72
2022/09/12 04:46:36;;;;;;;20.33;14.48;;;11.10;99.90;;;;;;5074958;28;20095;-70
2022/09/12 04:49:02;;;;;;;20.17;15.10;;;11.00;99.90;;;;;;5070742;28;20470;-71
2022/09/12 04:51:32;;;;;;;20.77;15.65;;;11.00;99.90;;;;;;5084966;28;20037;-71
2022/09/12 04:54:00;;;;;;;17.98;13.45;;;11.10;99.90;;;;;;5089139;28;20055;-70
2022/09/12 04:56:27;;;;;;;17.60;13.88;;;11.10;99.90;;;;;;5068698;28;20047;-71
2022/09/12 04:58:52;;;;;;;17.58;14.48;;;11.00;99.90;;;;;;5070815;28;20036;-69
2022/09/12 05:01:20;;;;;;;16.77;13.38;;;10.90;99.90;;;;;;5075354;28;20408;-70
2022/09/12 05:03:47;;;;;;;17.02;14.45;;;10.90;99.90;;;;;;5075643;28;20041;-69
2022/09/12 05:06:16;;;;;;;17.88;14.85;;;10.90;99.90;;;;;;5080983;28;20066;-69
2022/09/12 05:08:41;;;;;;;18.60;13.63;;;10.90;99.90;;;;;;5075394;28;20033;-71
2022/09/12 05:11:12;;;;;;;15.75;12.95;;;10.90;99.90;;;;;;5075307;28;20036;-71
2022/09/12 05:13:39;;;;;;;17.95;13.60;;;11.00;99.90;;;;;;5082403;28;20064;-71
2022/09/12 05:16:05;;;;;;;15.80;13.52;;;11.00;99.90;;;;;;5074579;28;20428;-70
2022/09/12 05:18:33;;;;;;;17.02;12.40;;;11.00;99.90;;;;;;5069856;28;20741;-71
2022/09/12 05:20:59;;;;;;;17.23;14.55;;;11.00;99.90;;;;;;5094523;28;20032;-69
2022/09/12 05:23:26;;;;;;;20.45;15.52;;;10.90;99.90;;;;;;5094717;28;20044;-70
2022/09/12 05:25:53;;;;;;;19.38;15.68;;;11.00;99.90;;;;;;5094280;28;20090;-69
2022/09/12 05:28:20;;;;;;;25.33;16.77;;;11.00;99.90;;;;;;5094946;28;20028;-70
2022/09/12 05:30:46;;;;;;;23.20;16.08;;;11.10;99.90;;;;;;5094366;28;20036;-70
2022/09/12 05:33:12;;;;;;;20.42;15.65;;;11.10;99.90;;;;;;5088361;28;20040;-70
2022/09/12 05:35:39;;;;;;;20.88;14.77;;;11.20;99.90;;;;;;5074922;28;20111;-71
2022/09/12 05:38:07;;;;;;;18.05;14.73;;;11.20;99.90;;;;;;5074212;28;20040;-71
2022/09/12 05:40:33;;;;;;;19.83;15.10;;;11.20;99.90;;;;;;5081371;28;20035;-72
2022/09/12 05:42:59;;;;;;;18.30;15.02;;;11.30;99.90;;;;;;5091268;28;20412;-76
2022/09/12 05:45:28;;;;;;;22.17;14.20;;;11.30;99.90;;;;;;5074903;28;20039;-71
2022/09/12 05:47:53;;;;;;;21.80;16.17;;;11.40;99.90;;;;;;5081431;28;20390;-71
2022/09/12 05:50:19;;;;;;;20.75;16.95;;;11.50;99.90;;;;;;5094400;28;20111;-72
2022/09/12 05:52:45;;;;;;;24.77;18.05;;;11.50;99.90;;;;;;5094423;28;20443;-78
2022/09/12 05:55:11;;;;;;;21.58;16.13;;;11.60;99.90;;;;;;5093776;28;20051;-75
2022/09/12 05:57:37;;;;;;;24.70;17.52;;;11.70;99.90;;;;;;5094227;28;20032;-75
2022/09/12 06:00:04;;;;;;;17.92;14.68;;;11.80;99.90;;;;;;5086538;28;20027;-75
2022/09/12 06:02:30;;;;;;;18.35;15.10;;;11.90;99.90;;;;;;5083672;28;20035;-75
2022/09/12 06:04:56;;;;;;;22.60;16.40;;;12.00;99.90;;;;;;5089775;28;20032;-75
2022/09/12 06:07:22;;;;;;;20.05;15.48;;;12.10;99.90;;;;;;5074116;28;20412;-76
2022/09/12 06:09:47;;;;;;;19.00;15.40;;;12.20;99.90;;;;;;5074417;28;20025;-72
2022/09/12 06:12:13;;;;;;;19.33;14.38;;;12.30;99.90;;;;;;5078980;28;20112;-73
2022/09/12 06:14:38;;;;;;;15.40;13.38;;;12.40;99.90;;;;;;5092881;28;20031;-73
2022/09/12 06:17:04;;;;;;;16.27;13.60;;;12.40;99.90;;;;;;5084938;28;20107;-71
2022/09/12 06:19:30;;;;;;;19.25;16.00;;;12.50;99.90;;;;;;5093349;28;20020;-71
2022/09/12 06:21:55;;;;;;;18.70;15.05;;;12.60;99.90;;;;;;5092313;28;20130;-71
2022/09/12 06:24:22;;;;;;;21.55;14.20;;;12.70;99.90;;;;;;5089722;28;20473;-71
2022/09/12 06:26:51;;;;;;;18.70;14.43;;;12.80;99.90;;;;;;5073344;28;20028;-70
2022/09/12 06:29:18;;;;;;;18.40;16.17;;;12.90;99.90;;;;;;5075144;28;20505;-71
2022/09/12 06:31:44;;;;;;;20.73;16.17;;;13.10;99.90;;;;;;5086649;28;20111;-71
2022/09/12 06:34:12;;;;;;;22.02;16.98;;;13.20;99.90;;;;;;5077564;28;20032;-70
2022/09/12 06:36:43;;;;;;;19.20;15.27;;;13.30;99.90;;;;;;5079872;28;20149;-70
2022/09/12 06:39:21;;;;;;;17.58;15.35;;;13.30;99.90;;;;;;5076798;28;20036;-70
2022/09/12 06:41:48;;;;;;;16.50;14.38;;;13.40;99.90;;;;;;5081452;28;20024;-71
2022/09/12 06:44:22;;;;;;;17.38;15.38;;;13.50;99.90;;;;;;5093241;28;20086;-70
2022/09/12 06:46:49;;;;;;;17.88;14.48;;;13.70;99.90;;;;;;5093524;28;20038;-72
2022/09/12 06:49:16;;;;;;;15.63;13.77;;;13.70;99.90;;;;;;5094921;28;20039;-71
2022/09/12 06:51:42;;;;;;;17.98;13.88;;;13.80;99.90;;;;;;5108079;28;20019;-70
2022/09/12 06:54:10;;;;;;;19.98;13.38;;;14.00;99.90;;;;;;5104640;28;20028;-70
2022/09/12 06:56:36;;;;;;;16.58;12.73;;;14.10;99.90;;;;;;5113072;28;20023;-72
2022/09/12 06:59:02;;;;;;;17.25;14.20;;;14.20;99.90;;;;;;5112594;28;20020;-69
2022/09/12 07:01:30;;;;;;;18.75;14.50;;;14.30;99.90;;;;;;5109950;28;20106;-68
2022/09/12 07:03:58;;;;;;;16.88;12.80;;;14.40;99.90;;;;;;5093026;28;20031;-68
2022/09/12 07:06:30;;;;;;;18.30;12.60;;;14.50;99.90;;;;;;5094092;28;20028;-70
2022/09/12 07:09:01;;;;;;;15.05;11.30;;;14.70;99.90;;;;;;5096237;28;20493;-68
2022/09/12 07:11:30;;;;;;;15.07;12.18;;;14.80;99.90;;;;;;5092322;28;20027;-68
2022/09/12 07:13:58;;;;;;;18.02;11.82;;;14.90;99.90;;;;;;5089030;28;20499;-68
2022/09/12 07:16:24;;;;;;;15.13;11.60;;;14.90;99.90;;;;;;5082603;28;20388;-69
2022/09/12 07:18:55;;;;;;;15.18;10.88;;;15.00;99.90;;;;;;5092385;28;20032;-68
2022/09/12 07:21:21;;;;;;;15.30;11.25;;;15.10;99.90;;;;;;5095746;28;20032;-68
2022/09/12 07:23:48;;;;;;;16.15;11.43;;;15.10;99.90;;;;;;5099315;28;20092;-69
2022/09/12 07:26:15;;;;;;;19.33;11.18;;;15.30;99.90;;;;;;5097498;28;20108;-68
2022/09/12 07:28:41;;;;;;;13.02;10.95;;;15.40;99.90;;;;;;5101349;28;20032;-68
2022/09/12 07:31:17;;;;;;;12.40;10.70;;;15.40;99.90;;;;;;5099987;28;20099;-68
2022/09/12 07:33:43;;;;;;;14.15;10.40;;;15.50;99.90;;;;;;5097553;28;20036;-69
2022/09/12 07:36:17;;;;;;;15.27;10.80;;;15.60;99.90;;;;;;5107313;28;20082;-69
2022/09/12 07:38:43;;;;;;;16.05;10.82;;;15.70;99.90;;;;;;5103023;28;20028;-70
2022/09/12 07:41:20;;;;;;;12.82;9.48;;;15.90;99.90;;;;;;5099476;28;20063;-68
2022/09/12 07:43:46;;;;;;;11.68;9.55;;;15.90;99.90;;;;;;5099128;28;20055;-68
2022/09/12 07:46:13;;;;;;;12.10;8.82;;;16.00;99.90;;;;;;5088364;28;20285;-68
2022/09/12 07:48:39;;;;;;;10.90;9.38;;;16.10;99.90;;;;;;5091243;28;20039;-68
2022/09/12 07:51:08;;;;;;;12.40;9.43;;;16.20;99.90;;;;;;5091172;28;20114;-68
2022/09/12 07:53:39;;;;;;;14.40;9.32;;;16.30;99.90;;;;;;5091961;28;20032;-68
2022/09/12 07:56:06;;;;;;;11.50;8.85;;;16.30;99.90;;;;;;5098458;28;20028;-68
2022/09/12 07:58:35;;;;;;;11.38;8.77;;;16.40;99.90;;;;;;5098342;28;20035;-68
2022/09/12 08:01:06;;;;;;;10.32;8.02;;;16.50;99.90;;;;;;5094117;28;20027;-67
2022/09/12 08:03:31;;;;;;;9.10;8.20;;;16.50;99.90;;;;;;5100648;28;20103;-67
2022/09/12 08:06:07;;;;;;;7.90;7.10;;;16.60;99.90;;;;;;5099265;28;20453;-66
2022/09/12 08:08:34;;;;;;;12.30;8.30;;;16.60;99.90;;;;;;5108036;28;20043;-66
2022/09/12 08:11:04;;;;;;;10.45;8.23;;;16.70;99.90;;;;;;5110395;28;20481;-66
2022/09/12 08:13:29;;;;;;;7.88;7.00;;;16.90;99.90;;;;;;5089900;28;20024;-67
2022/09/12 08:15:59;;;;;;;9.45;8.05;;;17.00;99.90;;;;;;5100012;28;20122;-66
2022/09/12 08:18:31;;;;;;;11.38;7.88;;;17.20;99.90;;;;;;5111266;28;20039;-68
2022/09/12 08:20:58;;;;;;;9.50;6.78;;;17.20;99.90;;;;;;5082215;28;20503;-66
2022/09/12 08:23:25;;;;;;;8.45;7.05;;;17.30;99.90;;;;;;5102256;28;20039;-67
2022/09/12 08:25:54;;;;;;;20.23;7.72;;;17.40;99.90;;;;;;5091370;28;20055;-68
2022/09/12 08:28:19;;;;;;;10.18;7.88;;;17.60;99.90;;;;;;5106665;28;20023;-67
2022/09/12 08:30:45;;;;;;;10.38;8.20;;;17.80;99.90;;;;;;5082729;28;20028;-69
2022/09/12 08:33:11;;;;;;;9.85;7.47;;;17.90;99.90;;;;;;5102876;28;20102;-67
2022/09/12 08:35:36;;;;;;;14.23;7.30;;;17.90;99.90;;;;;;5099090;28;20461;-67
2022/09/12 08:38:02;;;;;;;10.90;7.57;;;18.00;99.90;;;;;;5091777;28;20369;-67
2022/09/12 08:40:27;;;;;;;8.93;7.30;;;18.10;99.90;;;;;;5099697;28;20043;-68
2022/09/12 08:43:10;;;;;;;12.55;7.18;;;18.20;99.90;;;;;;5090503;28;20040;-67
2022/09/12 08:45:57;;;;;;;9.90;7.60;;;18.30;99.90;;;;;;5096345;28;20127;-69
2022/09/12 08:48:22;;;;;;;10.63;7.10;;;18.50;99.90;;;;;;5096832;28;20030;-69
2022/09/12 08:50:48;;;;;;;11.90;7.45;;;18.60;99.90;;;;;;5110569;28;20039;-69
2022/09/12 08:53:20;;;;;;;8.90;6.50;;;18.70;99.90;;;;;;5092044;28;20511;-69
2022/09/12 08:55:55;;;;;;;10.35;7.43;;;18.80;99.90;;;;;;5102612;28;20039;-69
2022/09/12 08:58:22;;;;;;;9.60;6.57;;;19.00;99.90;;;;;;5110603;28;20024;-70
2022/09/12 09:01:06;;;;;;;11.43;6.75;;;19.00;99.90;;;;;;5093255;28;20032;-68
2022/09/12 09:04:00;;;;;;;11.18;6.30;;;19.20;99.90;;;;;;5102558;28;20036;-69
2022/09/12 09:06:37;;;;;;;10.75;5.18;;;19.40;99.90;;;;;;5101481;28;20429;-68
2022/09/12 09:09:17;;;;;;;6.50;3.92;;;19.50;99.90;;;;;;5083288;28;20059;-68
2022/09/12 09:12:10;;;;;;;6.28;4.68;;;19.70;99.90;;;;;;5103540;28;20031;-68
2022/09/12 09:14:53;;;;;;;7.22;4.18;;;19.80;99.90;;;;;;5092220;28;20047;-68
2022/09/12 09:17:37;;;;;;;4.80;4.30;;;20.00;99.90;;;;;;5097274;28;20093;-68
2022/09/12 09:20:21;;;;;;;5.70;3.80;;;20.10;99.90;;;;;;5109979;28;20039;-68
2022/09/12 09:23:14;;;;;;;5.25;3.60;;;20.30;99.90;;;;;;5098706;28;20700;-68
2022/09/12 09:25:52;;;;;;;9.00;4.07;;;20.50;99.90;;;;;;5107731;28;20035;-68
2022/09/12 09:28:21;;;;;;;4.78;3.85;;;20.50;99.90;;;;;;5109824;28;20343;-68
2022/09/12 09:30:48;;;;;;;4.82;3.35;;;20.60;99.90;;;;;;5109925;28;20027;-69
2022/09/12 09:33:22;;;;;;;3.83;2.97;;;20.80;99.90;;;;;;5097758;28;20036;-66
2022/09/12 09:36:05;;;;;;;4.78;3.25;;;20.90;99.90;;;;;;5099608;28;20032;-70
2022/09/12 09:39:05;;;;;;;6.13;2.90;;;21.10;99.90;;;;;;5091196;28;20039;-67
2022/09/12 09:41:33;;;;;;;4.18;2.97;;;21.30;99.90;;;;;;5109588;28;20032;-66
2022/09/12 09:43:59;;;;;;;3.33;2.65;;;21.40;99.90;;;;;;5104577;28;20050;-66
2022/09/12 09:46:26;;;;;;;2.72;2.40;;;21.50;99.90;;;;;;5105449;28;20078;-69
2022/09/12 09:48:53;;;;;;;5.13;2.22;;;21.80;99.90;;;;;;5094056;28;20043;-68
2022/09/12 09:51:26;;;;;;;5.28;2.20;;;21.60;99.90;;;;;;5097347;28;20043;-68
2022/09/12 09:54:03;;;;;;;6.40;2.30;;;21.80;99.90;;;;;;5095499;28;20031;-69
2022/09/12 09:56:43;;;;;;;2.70;2.47;;;22.10;99.90;;;;;;5094320;28;20024;-68
2022/09/12 09:59:17;;;;;;;3.70;2.20;;;22.20;98.90;;;;;;5093494;28;20032;-69
2022/09/12 10:01:53;;;;;;;2.30;2.15;;;22.30;98.30;;;;;;5095557;28;20028;-68
2022/09/12 10:04:22;;;;;;;3.83;2.03;;;22.40;97.80;;;;;;5113217;28;20635;-69
2022/09/12 10:06:55;;;;;;;5.07;2.22;;;22.50;97.10;;;;;;5095022;28;20043;-70
2022/09/12 10:09:31;;;;;;;1.92;1.80;;;22.60;96.90;;;;;;5085540;28;20047;-69
2022/09/12 10:11:58;;;;;;;2.03;1.83;;;22.60;96.40;;;;;;5096266;28;20028;-70
2022/09/12 10:14:26;;;;;;;2.08;1.88;;;22.70;96.40;;;;;;5103821;28;20034;-69
2022/09/12 10:16:52;;;;;;;3.08;1.98;;;22.80;95.60;;;;;;5111159;28;20481;-68
2022/09/12 10:19:23;;;;;;;3.45;1.90;;;22.90;95.40;;;;;;5099062;28;20028;-69
2022/09/12 10:21:55;;;;;;;1.75;1.38;;;22.90;94.60;;;;;;5094522;28;20540;-69
2022/09/12 10:24:32;;;;;;;2.13;2.03;;;23.00;94.20;;;;;;5097935;28;20071;-68
2022/09/12 10:27:22;;;;;;;1.95;1.75;;;23.20;94.10;;;;;;5100583;28;20027;-66
2022/09/12 10:29:54;;;;;;;2.88;1.80;;;23.40;93.50;;;;;;5085836;28;20020;-69
2022/09/12 10:32:42;;;;;;;1.70;1.60;;;23.50;99.90;;;;;;5092840;28;20621;-68
2022/09/12 10:35:21;;;;;;;1.55;1.45;;;23.50;99.90;;;;;;5096768;28;20445;-69
2022/09/12 10:38:05;;;;;;;1.98;1.80;;;23.50;91.70;;;;;;5093896;28;20027;-69
2022/09/12 10:40:37;;;;;;;2.20;1.80;;;23.60;90.90;;;;;;5100903;28;20393;-68
2022/09/12 10:43:25;;;;;;;1.73;1.63;;;23.70;90.50;;;;;;5095284;28;20495;-68
2022/09/12 10:45:57;;;;;;;1.58;1.48;;;23.80;91.10;;;;;;5112722;28;20040;-68
2022/09/12 10:48:30;;;;;;;2.05;1.45;;;24.00;91.00;;;;;;5112421;28;20042;-69
2022/09/12 10:51:00;;;;;;;3.08;1.63;;;24.20;90.40;;;;;;5096217;28;20031;-68
2022/09/12 10:53:41;;;;;;;1.80;1.70;;;24.30;89.60;;;;;;5098968;28;20043;-68
2022/09/12 10:56:17;;;;;;;1.80;1.63;;;24.40;90.00;;;;;;5106247;28;20043;-68
2022/09/12 10:59:14;;;;;;;1.55;1.45;;;24.40;89.00;;;;;;5092912;28;20039;-69
2022/09/12 11:01:47;;;;;;;1.40;1.30;;;24.60;99.90;;;;;;5093918;28;20076;-69
2022/09/12 11:04:49;;;;;;;1.60;1.50;;;24.80;99.80;;;;;;5092360;28;20043;-67
2022/09/12 11:07:27;;;;;;;2.40;1.40;;;25.10;86.20;;;;;;5097386;28;20492;-69
2022/09/12 11:10:26;;;;;;;2.45;1.35;;;25.40;99.60;;;;;;5112916;28;20020;-69
2022/09/12 11:13:26;;;;;;;2.03;1.50;;;25.60;83.80;;;;;;5111177;28;20034;-69
2022/09/12 11:16:05;;;;;;;;;;;25.90;83.30;;;;;;5112793;28;20345;-68
2022/09/12 11:18:42;;;;;;;5.72;1.30;;;26.40;94.40;;;;;;5110409;28;20008;-66
2022/09/12 11:21:13;;;;;;;2.00;1.40;;;26.60;93.70;;;;;;5108860;28;20023;-68
2022/09/12 11:23:49;;;;;;;1.42;1.33;;;26.40;94.20;;;;;;5096620;28;20040;-68
2022/09/12 11:26:28;;;;;;;1.48;1.10;;;26.30;95.30;;;;;;5097981;28;20068;-68
2022/09/12 11:29:32;;;;;;;2.90;1.35;;;26.20;89.80;;;;;;5092673;28;20136;-68
2022/09/12 11:32:16;;;;;;;2.65;1.17;;;26.20;86.80;;;;;;5035028;28;20538;-69
2022/09/12 11:35:19;;;;;;;1.10;1.00;;;26.20;90.70;;;;;;5092026;28;20028;-68
2022/09/12 11:38:07;;;;;;;4.65;1.30;;;26.20;91.10;;;;;;5093413;28;20377;-68
2022/09/12 11:40:53;;;;;;;1.00;1.00;;;26.20;91.20;;;;;;5091410;28;20024;-68
2022/09/12 11:43:30;;;;;;;1.35;1.27;;;26.20;93.10;;;;;;5092957;28;20059;-69
2022/09/12 11:46:04;;;;;;;5.15;1.27;;;26.20;93.50;;;;;;5111815;28;20039;-68
2022/09/12 11:48:52;;;;;;;1.83;0.75;;;26.10;92.60;;;;;;5111518;28;20031;-69
2022/09/12 11:51:24;;;;;;;0.80;0.80;;;26.20;91.10;;;;;;5100754;28;20099;-69
2022/09/12 11:54:03;;;;;;;1.65;1.10;;;26.10;90.30;;;;;;5092044;28;20024;-69
2022/09/12 11:56:28;;;;;;;1.02;0.88;;;26.00;90.40;;;;;;5091257;28;20461;-69
2022/09/12 11:59:03;;;;;;;1.88;0.70;;;25.90;90.30;;;;;;5072901;28;20043;-69
2022/09/12 12:01:36;;;;;;;2.20;0.95;;;25.70;90.30;;;;;;5091907;28;20130;-69
2022/09/12 12:04:09;;;;;;;1.85;1.05;;;25.70;91.30;;;;;;5091641;28;20032;-68
2022/09/12 12:07:18;;;;;;;0.90;0.90;;;25.70;90.60;;;;;;5100043;28;20081;-67
2022/09/12 12:09:49;;;;;;;1.00;0.98;;;25.60;90.20;;;;;;5084537;28;20034;-67
2022/09/12 12:12:23;;;;;;;1.77;1.00;;;25.70;90.20;;;;;;5090631;28;20028;-68
2022/09/12 12:14:52;;;;;;;0.80;0.80;;;25.80;90.00;;;;;;5091540;28;20115;-67
2022/09/12 12:17:25;;;;;;;0.90;0.90;;;25.90;90.00;;;;;;5105573;28;20035;-70
2022/09/12 12:20:03;;;;;;;1.60;0.82;;;26.00;89.90;;;;;;5111779;28;20024;-69
2022/09/12 12:22:30;;;;;;;3.13;0.95;;;26.00;90.20;;;;;;5091057;28;20108;-70
2022/09/12 12:25:03;;;;;;;2.05;0.75;;;26.10;90.10;;;;;;5100645;28;20032;-68
2022/09/12 12:27:45;;;;;;;1.25;1.10;;;26.20;89.50;;;;;;5090723;28;20043;-68
2022/09/12 12:30:29;;;;;;;1.10;0.80;;;26.20;89.50;;;;;;5098526;28;20027;-67
2022/09/12 12:33:11;;;;;;;2.20;0.98;;;26.30;89.10;;;;;;5094573;28;20106;-69
2022/09/12 12:35:40;;;;;;;0.63;0.63;;;26.40;88.40;;;;;;5092781;28;20048;-69
2022/09/12 12:38:26;;;;;;;0.70;0.70;;;26.40;87.90;;;;;;5098461;28;20023;-67
2022/09/12 12:40:52;;;;;;;2.22;0.88;;;26.40;88.90;;;;;;5111137;28;20031;-69
2022/09/12 12:43:30;;;;;;;0.60;0.60;;;26.50;88.90;;;;;;5106798;28;20039;-69
2022/09/12 12:46:04;;;;;;;1.40;0.98;;;;;;;;;;5094539;28;20047;-68
2022/09/12 12:48:33;;;;;;;0.60;0.60;;;;;;;;;;5090713;28;20031;-68
2022/09/12 12:51:20;;;;;;;0.82;0.80;;;;;;;;;;5090633;28;20048;-68
2022/09/12 12:53:46;;;;;;;1.20;0.90;;;;;;;;;;5091197;28;20028;-69
2022/09/12 12:56:35;;;;;;;1.20;0.80;;;;;;;;;;5091252;28;20424;-68
2022/09/12 12:59:04;;;;;;;2.33;0.67;;;;;;;;;;5075845;28;20393;-68
2022/09/12 13:01:31;;;;;;;3.80;0.90;;;;;;;;;;5096086;28;20028;-68
2022/09/12 13:04:04;;;;;;;2.05;1.00;;;;;;;;;;5110395;28;20126;-68
2022/09/12 13:06:35;;;;;;;0.60;0.57;;;;;;;;;;5094045;28;20040;-68